Wetterdaten: Woche 09.07.01 - 15.07.01 (KW28)
Datum Zeit Temperatur Luftfeuchte Luftdruck Regenmenge Wind Richtung Taupunkt Windchill
09.07.2001 00:00 14.8 C 91 % 1012.7 hPa 0.6 l/m 0.1 km/h (0 Bft) N 13.3 C 14.8 C
09.07.2001 01:00 14.2 C 94 % 1012.8 hPa 0.0 l/m 0.0 km/h (0 Bft) N 13.3 C 14.2 C
09.07.2001 02:00 13.9 C 96 % 1012.8 hPa 0.0 l/m 0.0 km/h (0 Bft) N 13.2 C 13.9 C
09.07.2001 03:00 13.5 C 96 % 1012.8 hPa 0.0 l/m 0.0 km/h (0 Bft) N 12.9 C 13.5 C
09.07.2001 04:00 13.9 C 96 % 1012.8 hPa 0.0 l/m 0.0 km/h (0 Bft) O-SO 13.3 C 13.9 C
09.07.2001 05:00 13.8 C 97 % 1012.8 hPa 0.0 l/m 0.4 km/h (0 Bft) O-SO 13.3 C 13.8 C
09.07.2001 06:00 13.6 C 96 % 1012.8 hPa 0.0 l/m 0.0 km/h (0 Bft) N 13.1 C 13.6 C
09.07.2001 07:00 13.8 C 92 % 1012.8 hPa 0.0 l/m 0.1 km/h (0 Bft) N 12.5 C 13.8 C
09.07.2001 08:00 14.5 C 89 % 1012.8 hPa 0.0 l/m 0.0 km/h (0 Bft) N 12.7 C 14.5 C
09.07.2001 09:00 16.4 C 82 % 1012.8 hPa 0.0 l/m 0.1 km/h (0 Bft) N 13.3 C 16.4 C
09.07.2001 10:00 18.5 C 70 % 1012.8 hPa 0.0 l/m 1.4 km/h (1 Bft) W-NW 12.9 C 18.5 C
09.07.2001 11:00 19.7 C 60 % 1012.8 hPa 0.0 l/m 11.4 km/h (2 Bft) W-NW 11.6 C 19.7 C
09.07.2001 12:00 20.8 C 51 % 1012.8 hPa 0.0 l/m 9.2 km/h (2 Bft) W-NW 10.4 C 20.8 C
09.07.2001 13:00 22.2 C 48 % 1012.8 hPa 0.0 l/m 6.6 km/h (2 Bft) W-NW 10.8 C 22.2 C
09.07.2001 14:00 22.3 C 45 % 1012.0 hPa 0.0 l/m 9.9 km/h (2 Bft) W-NW 9.9 C 22.3 C
09.07.2001 15:00 23.9 C 39 % 1011.8 hPa 0.0 l/m 6.8 km/h (2 Bft) W-NW 9.1 C 23.9 C
09.07.2001 16:00 24.7 C 39 % 1011.8 hPa 0.0 l/m 10.4 km/h (2 Bft) W-NW 9.6 C 24.7 C
09.07.2001 17:00 24.9 C 38 % 1011.5 hPa 0.0 l/m 7.8 km/h (2 Bft) W-NW 9.6 C 24.9 C
09.07.2001 18:00 24.2 C 39 % 1010.8 hPa 0.0 l/m 5.8 km/h (2 Bft) W-NW 9.3 C 24.2 C
09.07.2001 19:00 23.5 C 39 % 1010.8 hPa 0.0 l/m 0.2 km/h (0 Bft) W-NW 8.9 C 23.5 C
09.07.2001 20:00 21.6 C 49 % 1010.8 hPa 0.0 l/m 0.0 km/h (0 Bft) N 10.4 C 21.6 C
09.07.2001 21:00 18.5 C 65 % 1010.8 hPa 0.0 l/m 1.5 km/h (1 Bft) O-SO 11.8 C 18.5 C
09.07.2001 22:00 16.3 C 76 % 1011.8 hPa 0.0 l/m 2.8 km/h (1 Bft) O-SO 12.1 C 16.3 C
09.07.2001 23:00 15.0 C 80 % 1011.8 hPa 0.0 l/m 1.4 km/h (1 Bft) O-SO 11.6 C 15.0 C
10.07.2001 00:00 13.6 C 86 % 1011.8 hPa 0.0 l/m 0.5 km/h (0 Bft) O-SO 11.3 C 13.6 C
10.07.2001 01:00 13.2 C 88 % 1011.8 hPa 0.0 l/m 1.1 km/h (0 Bft) O-SO 11.4 C 13.2 C
10.07.2001 02:00 12.7 C 91 % 1011.8 hPa 0.0 l/m 0.0 km/h (0 Bft) N 11.2 C 12.7 C
10.07.2001 03:00 12.5 C 91 % 1011.8 hPa 0.0 l/m 0.0 km/h (0 Bft) N 11.1 C 12.5 C
10.07.2001 04:00 11.7 C 93 % 1011.8 hPa 0.0 l/m 0.0 km/h (0 Bft) N 10.7 C 11.7 C
10.07.2001 05:00 10.8 C 96 % 1011.8 hPa 0.0 l/m 0.0 km/h (0 Bft) N 10.1 C 10.8 C
10.07.2001 06:00 11.3 C 95 % 1010.8 hPa 0.0 l/m 0.0 km/h (0 Bft) N 10.5 C 11.3 C
10.07.2001 07:00 12.8 C 90 % 1010.8 hPa 0.0 l/m 0.0 km/h (0 Bft) N 11.2 C 12.8 C
10.07.2001 08:00 14.7 C 81 % 1011.1 hPa 0.0 l/m 0.0 km/h (0 Bft) N 11.5 C 14.7 C
10.07.2001 09:00 17.1 C 72 % 1010.8 hPa 0.0 l/m 0.7 km/h (0 Bft) W-NW 12.0 C 17.1 C
10.07.2001 10:00 20.7 C 62 % 1010.8 hPa 0.0 l/m 1.4 km/h (1 Bft) O-SO 13.2 C 20.7 C
10.07.2001 11:00 23.4 C 53 % 1009.8 hPa 0.0 l/m 1.7 km/h (1 Bft) O 13.2 C 23.4 C
10.07.2001 12:00 24.4 C 46 % 1009.7 hPa 0.0 l/m 1.6 km/h (1 Bft) W-NW 11.9 C 24.4 C
10.07.2001 13:00 25.8 C 40 % 1009.4 hPa 0.0 l/m 2.0 km/h (1 Bft) W-NW 11.1 C 25.8 C
10.07.2001 14:00 27.2 C 39 % 1008.7 hPa 0.0 l/m 2.8 km/h (1 Bft) W-NW 12.0 C 27.2 C
10.07.2001 15:00 28.1 C 38 % 1008.7 hPa 0.0 l/m 4.8 km/h (1 Bft) W-NW 12.6 C 28.1 C
10.07.2001 16:00 27.9 C 37 % 1007.6 hPa 0.0 l/m 4.8 km/h (1 Bft) W-NW 11.8 C 27.9 C
10.07.2001 17:00 27.5 C 33 % 1007.6 hPa 0.0 l/m 7.2 km/h (2 Bft) W-NW 9.7 C 27.5 C
10.07.2001 18:00 26.4 C 37 % 1007.6 hPa 0.0 l/m 4.2 km/h (1 Bft) W-NW 10.6 C 26.4 C
10.07.2001 19:00 24.6 C 45 % 1007.6 hPa 0.0 l/m 4.3 km/h (1 Bft) W-NW 11.7 C 24.6 C
10.07.2001 20:00 22.8 C 55 % 1007.6 hPa 0.0 l/m 5.3 km/h (1 Bft) W-NW 13.2 C 22.8 C
10.07.2001 21:00 21.3 C 65 % 1008.5 hPa 0.0 l/m 0.1 km/h (0 Bft) N 14.4 C 21.3 C
10.07.2001 22:00 21.3 C 64 % 1008.7 hPa 0.0 l/m 6.2 km/h (2 Bft) W-NW 14.1 C 21.3 C
10.07.2001 23:00 21.9 C 57 % 1009.2 hPa 0.0 l/m 22.3 km/h (4 Bft) W-NW 13.1 C 21.9 C
11.07.2001 00:00 21.3 C 56 % 1009.7 hPa 0.0 l/m 16.4 km/h (3 Bft) W-NW 12.3 C 21.3 C
11.07.2001 01:00 20.6 C 57 % 1009.7 hPa 0.0 l/m 9.7 km/h (2 Bft) W-NW 11.8 C 20.6 C
11.07.2001 02:00 20.6 C 54 % 1009.7 hPa 0.0 l/m 8.2 km/h (2 Bft) W-NW 10.8 C 20.6 C
11.07.2001 03:00 20.0 C 55 % 1009.7 hPa 0.0 l/m 15.0 km/h (3 Bft) W-NW 10.6 C 20.0 C
11.07.2001 04:00 19.5 C 57 % 1009.7 hPa 0.0 l/m 9.2 km/h (2 Bft) W-NW 10.6 C 19.5 C
11.07.2001 05:00 19.2 C 59 % 1009.7 hPa 0.0 l/m 15.2 km/h (3 Bft) W-NW 11.0 C 19.2 C
11.07.2001 06:00 18.8 C 62 % 1010.6 hPa 0.0 l/m 11.2 km/h (2 Bft) W-NW 11.4 C 18.8 C
11.07.2001 07:00 18.6 C 60 % 1010.8 hPa 0.0 l/m 19.9 km/h (4 Bft) NW 10.7 C 18.6 C
11.07.2001 08:00 18.2 C 61 % 1010.8 hPa 0.0 l/m 24.2 km/h (4 Bft) NW 10.5 C 18.2 C
11.07.2001 09:00 17.8 C 64 % 1011.8 hPa 0.0 l/m 14.6 km/h (3 Bft) W-NW 10.9 C 17.8 C
11.07.2001 10:00 17.4 C 67 % 1011.9 hPa 0.0 l/m 12.2 km/h (2 Bft) W-NW 11.2 C 17.4 C
11.07.2001 11:00 17.4 C 65 % 1012.8 hPa 0.0 l/m 10.7 km/h (2 Bft) W-NW 10.7 C 17.4 C
11.07.2001 12:00 17.5 C 61 % 1012.8 hPa 0.0 l/m 12.8 km/h (3 Bft) W-NW 10.0 C 17.5 C
11.07.2001 13:00 17.9 C 61 % 1012.8 hPa 0.0 l/m 10.8 km/h (2 Bft) W-NW 10.3 C 17.9 C
11.07.2001 14:00 19.7 C 58 % 1012.8 hPa 0.0 l/m 4.6 km/h (1 Bft) W 11.1 C 19.7 C
11.07.2001 15:00 19.9 C 59 % 1012.8 hPa 0.0 l/m 5.3 km/h (1 Bft) W-NW 11.5 C 19.9 C
11.07.2001 16:00 20.2 C 57 % 1012.8 hPa 0.0 l/m 31.4 km/h (5 Bft) W-NW 11.5 C 20.2 C
11.07.2001 17:00 18.7 C 61 % 1013.7 hPa 0.0 l/m 22.4 km/h (4 Bft) W-NW 11.1 C 18.7 C
11.07.2001 18:00 19.8 C 56 % 1012.8 hPa 0.0 l/m 11.9 km/h (2 Bft) W-NW 10.8 C 19.8 C
11.07.2001 19:00 20.8 C 53 % 1012.8 hPa 0.0 l/m 8.6 km/h (2 Bft) W 10.9 C 20.8 C
11.07.2001 20:00 19.1 C 64 % 1012.8 hPa 0.0 l/m 0.0 km/h (0 Bft) N 12.1 C 19.1 C
11.07.2001 21:00 17.6 C 69 % 1013.8 hPa 0.0 l/m 0.1 km/h (0 Bft) N 11.9 C 17.6 C
11.07.2001 22:00 16.6 C 70 % 1014.2 hPa 0.0 l/m 2.5 km/h (1 Bft) W-NW 11.1 C 16.6 C
11.07.2001 23:00 16.3 C 69 % 1014.8 hPa 0.0 l/m 0.2 km/h (0 Bft) N 10.5 C 16.3 C
12.07.2001 00:00 16.0 C 71 % 1014.9 hPa 0.0 l/m 0.8 km/h (0 Bft) W 10.6 C 16.0 C
12.07.2001 01:00 13.7 C 80 % 1014.9 hPa 0.0 l/m 0.0 km/h (0 Bft) N 10.3 C 13.7 C
12.07.2001 02:00 12.0 C 87 % 1014.8 hPa 0.0 l/m 1.2 km/h (1 Bft) O-SO 9.9 C 12.0 C
12.07.2001 03:00 10.6 C 91 % 1013.9 hPa 0.0 l/m 1.1 km/h (1 Bft) O-SO 9.2 C 10.6 C
12.07.2001 04:00 10.0 C 93 % 1013.9 hPa 0.0 l/m 0.2 km/h (0 Bft) O-SO 8.9 C 10.0 C
12.07.2001 05:00 10.0 C 94 % 1013.9 hPa 0.0 l/m 0.0 km/h (0 Bft) N 9.1 C 10.0 C
12.07.2001 06:00 11.3 C 92 % 1014.3 hPa 0.0 l/m 0.0 km/h (0 Bft) N 10.0 C 11.3 C
12.07.2001 07:00 12.4 C 87 % 1014.1 hPa 0.0 l/m 0.0 km/h (0 Bft) N 10.3 C 12.4 C
12.07.2001 08:00 13.8 C 82 % 1013.9 hPa 0.0 l/m 0.1 km/h (0 Bft) O-SO 10.8 C 13.8 C
12.07.2001 09:00 16.8 C 69 % 1013.9 hPa 0.0 l/m 4.1 km/h (1 Bft) O-SO 11.0 C 16.8 C
12.07.2001 10:00 18.7 C 54 % 1013.7 hPa 0.0 l/m 5.5 km/h (1 Bft) NW 9.1 C 18.7 C
12.07.2001 11:00 20.2 C 50 % 1012.8 hPa 0.0 l/m 4.8 km/h (1 Bft) W-NW 9.5 C 20.2 C
12.07.2001 12:00 20.8 C 49 % 1012.8 hPa 0.0 l/m 2.6 km/h (1 Bft) W-NW 9.7 C 20.8 C
12.07.2001 13:00 22.2 C 45 % 1012.0 hPa 0.0 l/m 2.3 km/h (1 Bft) NW 9.5 C 22.2 C
12.07.2001 14:00 23.3 C 41 % 1011.1 hPa 0.0 l/m 5.9 km/h (2 Bft) W 9.2 C 23.3 C
12.07.2001 15:00 22.8 C 44 % 1010.7 hPa 0.0 l/m 8.1 km/h (2 Bft) W-NW 9.7 C 22.8 C
12.07.2001 16:00 22.3 C 47 % 1009.7 hPa 0.0 l/m 11.5 km/h (2 Bft) W-NW 10.3 C 22.3 C
12.07.2001 17:00 21.5 C 50 % 1009.7 hPa 0.0 l/m 12.7 km/h (3 Bft) W-NW 10.6 C 21.5 C
12.07.2001 18:00 20.7 C 52 % 1009.6 hPa 0.0 l/m 4.9 km/h (1 Bft) NW 10.6 C 20.7 C
12.07.2001 19:00 20.2 C 54 % 1009.1 hPa 0.0 l/m 0.1 km/h (0 Bft) N 10.5 C 20.2 C
12.07.2001 20:00 19.2 C 57 % 1009.4 hPa 0.0 l/m 0.2 km/h (0 Bft) W-NW 10.4 C 19.2 C
12.07.2001 21:00 18.4 C 61 % 1008.8 hPa 0.0 l/m 0.1 km/h (0 Bft) N 10.8 C 18.4 C
12.07.2001 22:00 17.7 C 69 % 1009.7 hPa 0.0 l/m 0.7 km/h (0 Bft) O-SO 12.0 C 17.7 C
12.07.2001 23:00 17.2 C 71 % 1009.7 hPa 0.0 l/m 1.3 km/h (1 Bft) O-SO 12.0 C 17.2 C
13.07.2001 00:00 17.2 C 73 % 1009.5 hPa 0.0 l/m 0.0 km/h (0 Bft) N 12.4 C 17.2 C
13.07.2001 01:00 16.4 C 79 % 1009.7 hPa 0.3 l/m 10.3 km/h (2 Bft) W-NW 12.8 C 16.4 C
13.07.2001 02:00 15.8 C 91 % 1009.1 hPa 2.3 l/m 9.2 km/h (2 Bft) NW 14.3 C 15.8 C
13.07.2001 03:00 15.7 C 91 % 1008.7 hPa 1.9 l/m 15.4 km/h (3 Bft) NW 14.2 C 15.7 C
13.07.2001 04:00 14.8 C 90 % 1008.7 hPa 1.3 l/m 9.9 km/h (2 Bft) W-NW 13.3 C 14.8 C
13.07.2001 05:00 14.5 C 93 % 1008.7 hPa 1.0 l/m 0.8 km/h (0 Bft) O-SO 13.5 C 14.5 C
13.07.2001 06:00 14.7 C 95 % 1008.7 hPa 1.0 l/m 0.9 km/h (0 Bft) O-SO 13.9 C 14.7 C
13.07.2001 07:00 15.0 C 94 % 1009.6 hPa 0.0 l/m 3.3 km/h (1 Bft) W-NW 14.1 C 15.0 C
13.07.2001 08:00 14.4 C 90 % 1009.7 hPa 0.6 l/m 6.5 km/h (2 Bft) W-NW 12.7 C 14.4 C
13.07.2001 09:00 14.0 C 89 % 1010.3 hPa 0.3 l/m 1.2 km/h (1 Bft) SO 12.2 C 14.0 C
13.07.2001 10:00 14.5 C 88 % 1010.8 hPa 0.0 l/m 1.3 km/h (1 Bft) O 12.6 C 14.5 C
13.07.2001 11:00 15.9 C 83 % 1010.8 hPa 0.0 l/m 1.8 km/h (1 Bft) O-SO 13.0 C 15.9 C
13.07.2001 12:00 17.2 C 79 % 1010.8 hPa 0.0 l/m 2.4 km/h (1 Bft) O-SO 13.6 C 17.2 C
13.07.2001 13:00 18.3 C 76 % 1010.8 hPa 0.0 l/m 2.3 km/h (1 Bft) O 13.9 C 18.3 C
13.07.2001 14:00 19.8 C 68 % 1010.1 hPa 0.0 l/m 5.2 km/h (1 Bft) O 13.8 C 19.8 C
13.07.2001 15:00 20.6 C 68 % 1009.7 hPa 0.0 l/m 6.0 km/h (2 Bft) O 14.6 C 20.6 C
13.07.2001 16:00 21.5 C 64 % 1008.6 hPa 0.0 l/m 4.1 km/h (1 Bft) O 14.3 C 21.5 C
13.07.2001 17:00 21.5 C 65 % 1008.7 hPa 0.0 l/m 1.3 km/h (1 Bft) NO 14.7 C 21.5 C
13.07.2001 18:00 21.7 C 65 % 1007.4 hPa 0.0 l/m 0.9 km/h (0 Bft) O-SO 14.8 C 21.7 C
13.07.2001 19:00 21.1 C 67 % 1007.6 hPa 0.0 l/m 4.4 km/h (1 Bft) O-SO 14.9 C 21.1 C
13.07.2001 20:00 20.2 C 71 % 1006.7 hPa 0.0 l/m 2.5 km/h (1 Bft) O-SO 14.8 C 20.2 C
13.07.2001 21:00 17.8 C 84 % 1006.6 hPa 0.0 l/m 0.7 km/h (0 Bft) O 15.1 C 17.8 C
13.07.2001 22:00 16.5 C 89 % 1006.6 hPa 0.0 l/m 0.0 km/h (0 Bft) N 14.6 C 16.5 C
13.07.2001 23:00 15.6 C 92 % 1006.6 hPa 0.0 l/m 0.0 km/h (0 Bft) N 14.4 C 15.6 C
14.07.2001 00:00 16.1 C 93 % 1006.7 hPa 0.0 l/m 0.8 km/h (0 Bft) W-NW 14.9 C 16.1 C
14.07.2001 01:00 15.8 C 94 % 1006.6 hPa 0.0 l/m 1.2 km/h (1 Bft) O-SO 14.8 C 15.8 C
14.07.2001 02:00 15.6 C 95 % 1006.6 hPa 0.0 l/m 0.1 km/h (0 Bft) N 14.8 C 15.6 C
14.07.2001 03:00 15.7 C 95 % 1006.6 hPa 0.0 l/m 0.0 km/h (0 Bft) N 14.9 C 15.7 C
14.07.2001 04:00 15.5 C 96 % 1006.2 hPa 0.0 l/m 2.0 km/h (1 Bft) O-SO 14.9 C 15.5 C
14.07.2001 05:00 15.6 C 95 % 1005.6 hPa 0.0 l/m 0.0 km/h (0 Bft) N 14.9 C 15.6 C
14.07.2001 06:00 15.6 C 96 % 1005.6 hPa 0.0 l/m 0.0 km/h (0 Bft) N 15.0 C 15.6 C
14.07.2001 07:00 16.8 C 90 % 1005.6 hPa 0.0 l/m 0.2 km/h (0 Bft) W 15.3 C 16.8 C
14.07.2001 08:00 18.3 C 83 % 1005.6 hPa 0.0 l/m 1.2 km/h (1 Bft) O-SO 15.3 C 18.3 C
14.07.2001 09:00 20.2 C 72 % 1005.6 hPa 0.0 l/m 3.4 km/h (1 Bft) W-NW 15.0 C 20.2 C
14.07.2001 10:00 21.8 C 64 % 1005.6 hPa 0.0 l/m 2.1 km/h (1 Bft) O-SO 14.6 C 21.8 C
14.07.2001 11:00 23.7 C 56 % 1005.6 hPa 0.0 l/m 0.8 km/h (0 Bft) W 14.5 C 23.7 C
14.07.2001 12:00 23.5 C 59 % 1005.6 hPa 0.0 l/m 0.7 km/h (0 Bft) W-NW 14.9 C 23.5 C
14.07.2001 13:00 22.8 C 62 % 1005.6 hPa 0.0 l/m 0.3 km/h (0 Bft) O-SO 15.1 C 22.8 C
14.07.2001 14:00 22.6 C 70 % 1005.6 hPa 0.0 l/m 4.9 km/h (1 Bft) O-SO 16.8 C 22.6 C
14.07.2001 15:00 23.5 C 65 % 1005.6 hPa 0.0 l/m 3.7 km/h (1 Bft) O-SO 16.6 C 23.5 C
14.07.2001 16:00 24.7 C 59 % 1005.4 hPa 0.0 l/m 1.0 km/h (0 Bft) O-NO 16.1 C 24.7 C
14.07.2001 17:00 24.4 C 59 % 1004.5 hPa 0.0 l/m 0.0 km/h (0 Bft) N 15.9 C 24.4 C
14.07.2001 18:00 23.6 C 62 % 1004.5 hPa 0.0 l/m 0.0 km/h (0 Bft) N 15.9 C 23.6 C
14.07.2001 19:00 23.0 C 65 % 1004.5 hPa 0.0 l/m 0.0 km/h (0 Bft) N 15.9 C 23.0 C
14.07.2001 20:00 21.8 C 70 % 1004.9 hPa 0.0 l/m 4.2 km/h (1 Bft) W-NW 16.0 C 21.8 C
14.07.2001 21:00 20.4 C 66 % 1006.5 hPa 0.3 l/m 15.1 km/h (3 Bft) W-NW 13.7 C 20.4 C
14.07.2001 22:00 16.8 C 93 % 1008.3 hPa 12.3 l/m 1.7 km/h (1 Bft) O-SO 15.6 C 16.8 C
14.07.2001 23:00 16.6 C 96 % 1008.8 hPa 6.1 l/m 0.1 km/h (0 Bft) N 15.9 C 16.6 C
15.07.2001 00:00 16.5 C 97 % 1009.0 hPa 1.6 l/m 1.0 km/h (0 Bft) O-SO 16.0 C 16.5 C
15.07.2001 01:00 16.4 C 96 % 1009.3 hPa 2.6 l/m 0.5 km/h (0 Bft) O-SO 15.8 C 16.4 C
15.07.2001 02:00 16.1 C 97 % 1008.7 hPa 0.3 l/m 1.4 km/h (1 Bft) O-SO 15.6 C 16.1 C
15.07.2001 03:00 16.1 C 97 % 1008.7 hPa 0.3 l/m 1.6 km/h (1 Bft) O-SO 15.6 C 16.1 C
15.07.2001 04:00 15.9 C 96 % 1008.7 hPa 1.3 l/m 0.0 km/h (0 Bft) N 15.3 C 15.9 C
15.07.2001 05:00 16.0 C 97 % 1008.7 hPa 0.3 l/m 0.0 km/h (0 Bft) N 15.5 C 16.0 C
15.07.2001 06:00 15.9 C 96 % 1008.7 hPa 1.0 l/m 2.1 km/h (1 Bft) O-SO 15.3 C 15.9 C
15.07.2001 07:00 16.0 C 96 % 1008.3 hPa 0.6 l/m 6.0 km/h (2 Bft) O-SO 15.4 C 16.0 C
15.07.2001 08:00 17.2 C 91 % 1008.5 hPa 0.0 l/m 0.9 km/h (0 Bft) O-SO 15.8 C 17.2 C
15.07.2001 09:00 17.9 C 88 % 1008.7 hPa 0.0 l/m 0.1 km/h (0 Bft) N 15.8 C 17.9 C
15.07.2001 10:00 16.7 C 89 % 1008.7 hPa 0.3 l/m 6.9 km/h (2 Bft) W-NW 14.8 C 16.7 C
15.07.2001 11:00 13.7 C 92 % 1009.5 hPa 1.6 l/m 3.5 km/h (1 Bft) NW 12.4 C 13.7 C
15.07.2001 12:00 13.6 C 93 % 1010.4 hPa 3.2 l/m 11.0 km/h (2 Bft) NW 12.5 C 13.6 C
15.07.2001 13:00 14.7 C 89 % 1010.2 hPa 1.3 l/m 0.8 km/h (0 Bft) W-NW 12.8 C 14.7 C
15.07.2001 14:00 14.9 C 86 % 1010.1 hPa 0.3 l/m 0.5 km/h (0 Bft) W-NW 12.6 C 14.9 C
15.07.2001 15:00 14.2 C 91 % 1010.8 hPa 1.9 l/m 0.8 km/h (0 Bft) NW 12.8 C 14.2 C
15.07.2001 16:00 13.8 C 91 % 1010.7 hPa 3.6 l/m 0.2 km/h (0 Bft) N 12.4 C 13.8 C
15.07.2001 17:00 13.7 C 92 % 1010.0 hPa 3.9 l/m 0.0 km/h (0 Bft) N 12.4 C 13.7 C
15.07.2001 18:00 13.0 C 92 % 1009.7 hPa 3.6 l/m 0.2 km/h (0 Bft) O 11.7 C 13.0 C
15.07.2001 19:00 12.2 C 92 % 1009.5 hPa 4.5 l/m 0.4 km/h (0 Bft) NO 10.9 C 12.2 C
15.07.2001 20:00 12.0 C 93 % 1009.7 hPa 3.9 l/m 0.1 km/h (0 Bft) N 10.9 C 12.0 C
15.07.2001 21:00 11.6 C 95 % 1009.8 hPa 3.9 l/m 0.0 km/h (0 Bft) N 10.8 C 11.6 C
15.07.2001 22:00 11.4 C 96 % 1010.3 hPa 3.9 l/m 0.7 km/h (0 Bft) O-SO 10.8 C 11.4 C
15.07.2001 23:00 11.4 C 96 % 1010.8 hPa 2.3 l/m 0.0 km/h (0 Bft) N 10.8 C 11.4 C
Min-Datum _ 12.07.01 10.07.01 14.07.01 - 09.07.01 - 09.07.01 12.07.01
_ Min-Zeit 05:07 17:21 16:53 - 00:00 - 19:24 05:07
Minimum _ 9.4 C 30 % 1004.5 hPa - 0.0 km/h (0 Bft) - 8.0 C 9.4 C
Max-Datum _ 10.07.01 09.07.01 11.07.01 14.07.01 11.07.01 - 14.07.01 10.07.01
_ Max-Zeit 15:49 04:16 22:46 22:05 16:38 - 15:21 15:49
Maximum _ 28.6 C 97 % 1014.9 hPa 12.3 l/m 43.0 km/h
W-NW (6 Bft)
- 17.3 C 28.6 C
Durchschnitt _ 18.0 C 73 % 1010.1 hPa #74.4 l/m 4.0 km/h (1 Bft) W-NW 12.5 C 18.0 C

Durchschnitt Minimum Temp.17.2 C
Durchschnitt Maximum Temp.18.8 C
© Kaiko 2001